createdAt,value
2019-05-20T00:00:42.729Z,27.80
2019-05-20T00:03:12.490Z,41.73
2019-05-20T00:05:42.581Z,33.73
2019-05-20T00:08:12.496Z,30.30
2019-05-20T00:10:42.294Z,36.17
2019-05-20T00:13:12.004Z,37.17
2019-05-20T00:15:41.739Z,36.67
2019-05-20T00:18:11.538Z,31.93
2019-05-20T00:20:41.294Z,32.20
2019-05-20T00:23:11.051Z,38.70
2019-05-20T00:25:40.808Z,33.30
2019-05-20T00:28:10.504Z,31.63
2019-05-20T00:30:40.217Z,32.40
2019-05-20T00:33:09.934Z,38.23
2019-05-20T00:35:39.703Z,28.67
2019-05-20T00:38:09.423Z,29.97
2019-05-20T00:40:39.110Z,35.47
2019-05-20T00:43:08.838Z,40.47
2019-05-20T00:45:38.556Z,44.50
2019-05-20T00:48:08.282Z,32.93
2019-05-20T00:50:38.079Z,38.87
2019-05-20T00:53:07.926Z,36.90
2019-05-20T00:55:38.911Z,36.87
2019-05-20T00:58:08.776Z,47.27
2019-05-20T01:00:39.050Z,38.40
2019-05-20T01:03:08.883Z,40.23
2019-05-20T01:05:38.595Z,37.57
2019-05-20T01:08:08.334Z,45.10
2019-05-20T01:10:38.034Z,43.80
2019-05-20T01:13:07.834Z,31.67
2019-05-20T01:15:37.543Z,33.63
2019-05-20T01:18:07.276Z,38.23
2019-05-20T01:20:36.960Z,37.60
2019-05-20T01:23:07.074Z,37.07
2019-05-20T01:25:36.880Z,33.40
2019-05-20T01:28:06.667Z,42.13
2019-05-20T01:30:36.447Z,39.77
2019-05-20T01:33:13.901Z,39.50
2019-05-20T01:35:37.659Z,42.63
2019-05-20T01:38:07.378Z,41.63
2019-05-20T01:40:37.228Z,36.47
2019-05-20T01:43:06.931Z,39.67
2019-05-20T01:45:36.643Z,38.03
2019-05-20T01:48:06.410Z,43.83
2019-05-20T01:50:36.120Z,39.90
2019-05-20T01:53:05.891Z,44.63
2019-05-20T01:55:35.667Z,47.97
2019-05-20T01:58:05.461Z,46.37
2019-05-20T02:00:35.255Z,49.90
2019-05-20T02:03:05.055Z,47.80
2019-05-20T02:05:34.748Z,54.73
2019-05-20T02:08:04.451Z,40.43
2019-05-20T02:10:34.161Z,39.97
2019-05-20T02:13:04.038Z,42.80
2019-05-20T02:15:42.312Z,43.07
2019-05-20T02:18:12.183Z,38.00
2019-05-20T02:20:42.057Z,33.07
2019-05-20T02:23:15.373Z,46.23
2019-05-20T02:25:46.963Z,48.67
2019-05-20T02:28:17.918Z,39.87
2019-05-20T02:30:47.697Z,36.13
2019-05-20T02:33:17.605Z,39.33
2019-05-20T02:35:47.329Z,46.20
2019-05-20T02:38:17.033Z,42.57
2019-05-20T02:40:46.715Z,42.23
2019-05-20T02:43:16.507Z,39.97
2019-05-20T02:45:46.360Z,27.57
2019-05-20T02:48:16.128Z,38.37
2019-05-20T02:50:45.987Z,29.90
2019-05-20T02:53:15.860Z,36.07
2019-05-20T02:55:45.641Z,29.70
2019-05-20T02:58:15.336Z,35.50
2019-05-20T03:00:46.285Z,41.17
2019-05-20T03:03:16.180Z,40.60
2019-05-20T03:05:45.891Z,35.73
2019-05-20T03:08:15.573Z,37.70
2019-05-20T03:10:45.532Z,39.67
2019-05-20T03:13:15.231Z,38.73
2019-05-20T03:15:44.989Z,35.27
2019-05-20T03:18:14.700Z,34.03
2019-05-20T03:20:44.450Z,43.20
2019-05-20T03:23:14.624Z,31.47
2019-05-20T03:25:44.516Z,24.53
2019-05-20T03:28:14.212Z,34.23
2019-05-20T03:30:44.523Z,40.53
2019-05-20T03:33:15.380Z,40.70
2019-05-20T03:35:45.302Z,32.93
2019-05-20T03:38:15.156Z,29.67
2019-05-20T03:40:44.996Z,32.63
2019-05-20T03:43:14.775Z,36.63
2019-05-20T03:45:45.134Z,37.23
2019-05-20T03:48:14.813Z,41.67
2019-05-20T03:50:44.670Z,36.30
2019-05-20T03:53:14.714Z,32.80
2019-05-20T03:55:45.017Z,42.90
2019-05-20T03:58:14.895Z,35.93
2019-05-20T04:00:48.091Z,30.63
2019-05-20T04:03:18.017Z,33.07
2019-05-20T04:05:47.710Z,32.27
2019-05-20T04:08:17.704Z,32.10
2019-05-20T04:10:47.526Z,37.30
2019-05-20T04:13:17.407Z,33.57
2019-05-20T04:15:47.118Z,34.03
2019-05-20T04:18:16.938Z,36.23
2019-05-20T04:20:46.710Z,33.40
2019-05-20T04:23:16.685Z,33.80
2019-05-20T04:25:46.471Z,29.23
2019-05-20T04:28:16.334Z,30.77
2019-05-20T04:30:46.297Z,29.47
2019-05-20T04:33:16.144Z,27.73
2019-05-20T04:35:49.685Z,40.27
2019-05-20T04:38:17.472Z,31.87
2019-05-20T04:40:47.271Z,37.40
2019-05-20T04:43:16.978Z,32.53
2019-05-20T04:45:46.857Z,39.20
2019-05-20T04:48:16.540Z,30.07
2019-05-20T04:50:46.454Z,35.80
2019-05-20T04:53:16.324Z,26.63
2019-05-20T04:55:46.174Z,28.20
2019-05-20T04:58:15.882Z,25.93
2019-05-20T05:00:56.529Z,31.37
2019-05-20T05:03:26.385Z,28.33
2019-05-20T05:05:56.273Z,27.97
2019-05-20T05:08:26.206Z,22.57
2019-05-20T05:10:56.091Z,25.63
2019-05-20T05:13:25.950Z,27.37
2019-05-20T05:15:55.793Z,21.00
2019-05-20T05:18:25.647Z,20.37
2019-05-20T05:20:55.706Z,26.30
2019-05-20T05:23:25.566Z,27.37
2019-05-20T05:25:55.504Z,18.10
2019-05-20T05:28:25.297Z,23.27
2019-05-20T05:30:55.175Z,23.20
2019-05-20T05:33:25.027Z,23.60
2019-05-20T05:35:55.060Z,24.97
2019-05-20T05:38:24.898Z,24.50
2019-05-20T05:40:54.699Z,21.13
2019-05-20T05:43:24.589Z,21.37
2019-05-20T05:45:54.299Z,22.63
2019-05-20T05:48:24.064Z,23.27
2019-05-20T05:50:53.779Z,21.90
2019-05-20T05:53:23.547Z,24.80
2019-05-20T05:55:53.325Z,28.47
2019-05-20T05:58:23.020Z,18.80
2019-05-20T06:00:52.721Z,23.30
2019-05-20T06:03:22.547Z,26.83
2019-05-20T06:06:10.290Z,23.47
2019-05-20T06:08:23.732Z,27.37
2019-05-20T06:10:53.415Z,25.67
2019-05-20T06:13:23.254Z,20.60
2019-05-20T06:15:54.727Z,26.57
2019-05-20T06:18:24.504Z,18.27
2019-05-20T06:20:54.272Z,27.37
2019-05-20T06:23:24.041Z,24.77
2019-05-20T06:25:53.881Z,26.53
2019-05-20T06:28:23.796Z,32.07
2019-05-20T06:30:53.583Z,23.10
2019-05-20T06:33:23.409Z,21.80
2019-05-20T06:35:53.191Z,28.07
2019-05-20T06:38:43.668Z,29.50
2019-05-20T06:41:13.598Z,25.27
2019-05-20T06:43:43.369Z,23.27
2019-05-20T06:46:13.145Z,23.70
2019-05-20T06:48:42.835Z,24.67
2019-05-20T06:51:12.624Z,28.33
2019-05-20T06:53:42.411Z,32.70
2019-05-20T06:56:12.111Z,33.73
2019-05-20T06:58:42.898Z,28.00
2019-05-20T07:01:12.614Z,30.43
2019-05-20T07:03:42.324Z,34.07
2019-05-20T07:06:12.111Z,24.90
2019-05-20T07:08:41.909Z,25.97
2019-05-20T07:11:11.761Z,23.73
2019-05-20T07:13:41.454Z,28.13
2019-05-20T07:16:11.181Z,22.97
2019-05-20T07:18:41.010Z,25.47
2019-05-20T07:21:11.111Z,17.50
2019-05-20T07:23:40.863Z,21.97
2019-05-20T07:26:10.653Z,18.10
2019-05-20T07:28:40.376Z,15.40
2019-05-20T07:31:10.191Z,21.83
2019-05-20T07:33:40.027Z,24.37
2019-05-20T07:36:10.228Z,23.93
2019-05-20T07:38:40.117Z,23.57
2019-05-20T07:41:09.915Z,21.77
2019-05-20T07:43:39.752Z,20.13
2019-05-20T07:46:10.998Z,19.90
2019-05-20T07:48:41.226Z,28.67
2019-05-20T07:51:12.529Z,25.10
2019-05-20T07:53:43.091Z,22.47
2019-05-20T07:56:17.696Z,22.97
2019-05-20T07:58:50.554Z,23.77
2019-05-20T08:01:20.534Z,23.80
2019-05-20T08:03:50.307Z,24.93
2019-05-20T08:06:20.160Z,28.00
2019-05-20T08:08:50.839Z,18.27
2019-05-20T08:11:20.584Z,22.00
2019-05-20T08:13:50.346Z,22.87
2019-05-20T08:16:21.265Z,26.03
2019-05-20T08:18:51.138Z,26.33
2019-05-20T08:21:20.974Z,25.50
2019-05-20T08:23:50.695Z,29.30
2019-05-20T08:26:20.535Z,25.17
2019-05-20T08:28:50.307Z,27.27
2019-05-20T08:31:20.079Z,26.27
2019-05-20T08:33:50.815Z,25.23
2019-05-20T08:36:20.522Z,15.83
2019-05-20T08:38:50.235Z,27.30
2019-05-20T08:41:20.071Z,24.80
2019-05-20T08:43:49.811Z,20.23
2019-05-20T08:46:19.658Z,23.70
2019-05-20T08:48:49.492Z,17.30
2019-05-20T08:51:19.314Z,16.90
2019-05-20T08:53:49.179Z,19.60
2019-05-20T08:56:18.952Z,21.33
2019-05-20T08:58:48.715Z,23.97
2019-05-20T09:01:18.470Z,18.80
2019-05-20T09:03:48.307Z,28.60
2019-05-20T09:06:20.789Z,17.33
2019-05-20T09:08:49.506Z,21.80
2019-05-20T09:11:19.299Z,21.80
2019-05-20T09:13:49.066Z,20.57
2019-05-20T09:16:18.891Z,17.87
2019-05-20T09:18:48.656Z,22.77
2019-05-20T09:21:18.378Z,21.83
2019-05-20T09:23:48.097Z,21.10
2019-05-20T09:26:17.803Z,24.60
2019-05-20T09:28:47.574Z,23.00
2019-05-20T09:31:17.450Z,20.77
2019-05-20T09:33:47.317Z,25.60
2019-05-20T09:36:17.022Z,15.03
2019-05-20T09:38:50.042Z,22.00
2019-05-20T09:41:19.923Z,18.30
2019-05-20T09:43:49.707Z,22.67
2019-05-20T09:46:19.474Z,25.33
2019-05-20T09:48:49.178Z,17.27
2019-05-20T09:51:19.141Z,18.07
2019-05-20T09:53:49.042Z,17.47
2019-05-20T09:56:18.819Z,20.07
2019-05-20T09:58:48.521Z,15.83
2019-05-20T10:01:18.266Z,16.97
2019-05-20T10:03:48.069Z,17.43
2019-05-20T10:06:17.863Z,24.13
2019-05-20T10:08:47.615Z,20.53
2019-05-20T10:11:17.312Z,18.70
2019-05-20T10:13:47.178Z,15.50
2019-05-20T10:16:16.881Z,17.13
2019-05-20T10:18:46.564Z,19.83
2019-05-20T10:21:16.270Z,22.17
2019-05-20T10:23:45.960Z,23.50
2019-05-20T10:26:15.811Z,15.70
2019-05-20T10:28:47.468Z,19.50
2019-05-20T10:31:17.086Z,18.53
2019-05-20T10:33:46.848Z,19.73
2019-05-20T10:36:16.544Z,22.97
2019-05-20T10:38:57.606Z,19.13
2019-05-20T10:41:17.703Z,18.63
2019-05-20T10:43:47.385Z,19.30
2019-05-20T10:46:17.143Z,22.73
2019-05-20T10:48:46.861Z,21.00
2019-05-20T10:51:16.716Z,17.53
2019-05-20T10:53:46.559Z,17.80
2019-05-20T10:56:16.363Z,19.37
2019-05-20T10:58:46.216Z,18.07
2019-05-20T11:01:15.928Z,22.13
2019-05-20T11:03:45.683Z,19.63
2019-05-20T11:06:15.396Z,19.70
2019-05-20T11:08:45.108Z,20.50
2019-05-20T11:11:14.937Z,18.53
2019-05-20T11:13:44.743Z,20.53
2019-05-20T11:16:14.503Z,18.27
2019-05-20T11:18:44.207Z,17.27
2019-05-20T11:21:14.002Z,23.33
2019-05-20T11:23:43.709Z,25.87
2019-05-20T11:26:13.586Z,24.60
2019-05-20T11:28:43.379Z,20.90
2019-05-20T11:31:13.134Z,21.70
2019-05-20T11:33:42.933Z,24.73
2019-05-20T11:36:12.928Z,23.77
2019-05-20T11:38:42.623Z,27.33
2019-05-20T11:41:14.776Z,25.93
2019-05-20T11:43:44.618Z,24.17
2019-05-20T11:46:15.368Z,29.40
2019-05-20T11:48:45.111Z,23.33
2019-05-20T11:51:14.823Z,27.50
2019-05-20T11:53:44.659Z,19.60
2019-05-20T11:56:14.428Z,20.17
2019-05-20T11:58:44.110Z,21.77
2019-05-20T12:01:13.787Z,24.10
2019-05-20T12:03:43.486Z,18.77
2019-05-20T12:06:13.384Z,26.07
2019-05-20T12:08:43.145Z,24.03
2019-05-20T12:11:12.963Z,23.60
2019-05-20T12:13:42.683Z,23.23
2019-05-20T12:16:12.507Z,21.77
2019-05-20T12:18:45.076Z,27.97
2019-05-20T12:21:13.636Z,18.83
2019-05-20T12:23:43.314Z,22.57
2019-05-20T12:26:13.097Z,25.87
2019-05-20T12:28:42.787Z,21.53
2019-05-20T12:31:12.671Z,26.50
2019-05-20T12:33:42.514Z,22.70
2019-05-20T12:36:12.333Z,24.20
2019-05-20T12:38:42.023Z,31.30
2019-05-20T12:41:11.906Z,26.53
2019-05-20T12:43:44.694Z,22.53
2019-05-20T12:46:13.157Z,19.87
2019-05-20T12:48:43.876Z,22.67
2019-05-20T12:51:14.665Z,24.27
2019-05-20T12:53:44.727Z,26.03
2019-05-20T12:56:14.460Z,21.87
2019-05-20T12:58:44.343Z,27.53
2019-05-20T13:01:14.125Z,27.03
2019-05-20T13:03:43.828Z,23.73
2019-05-20T13:06:13.674Z,31.13
2019-05-20T13:08:43.389Z,24.83
2019-05-20T13:11:13.251Z,18.83
2019-05-20T13:13:43.023Z,19.80
2019-05-20T13:16:12.818Z,18.37
2019-05-20T13:18:54.884Z,18.57
2019-05-20T13:21:14.080Z,20.67
2019-05-20T13:23:43.884Z,17.93
2019-05-20T13:26:13.661Z,20.03
2019-05-20T13:28:43.367Z,15.67
2019-05-20T13:31:13.081Z,18.10
2019-05-20T13:33:42.971Z,15.93
2019-05-20T13:36:12.720Z,20.30
2019-05-20T13:38:42.667Z,19.23
2019-05-20T13:41:12.502Z,21.23
2019-05-20T13:43:42.204Z,30.97
2019-05-20T13:46:12.241Z,17.77
2019-05-20T13:48:42.190Z,25.97
2019-05-20T13:51:12.121Z,22.10
2019-05-20T13:53:42.941Z,21.07
2019-05-20T13:56:12.733Z,20.80
2019-05-20T13:58:42.431Z,22.00
2019-05-20T14:01:12.326Z,20.10
2019-05-20T14:03:42.155Z,27.87
2019-05-20T14:06:11.963Z,26.97
2019-05-20T14:08:41.691Z,18.40
2019-05-20T14:11:11.642Z,26.87
2019-05-20T14:13:41.334Z,21.47
2019-05-20T14:16:11.099Z,21.17
2019-05-20T14:18:42.039Z,20.37
2019-05-20T14:21:11.867Z,20.27
2019-05-20T14:23:41.660Z,24.40
2019-05-20T14:26:11.441Z,20.90
2019-05-20T14:28:42.429Z,27.27
2019-05-20T14:31:15.016Z,26.20
2019-05-20T14:33:44.804Z,30.47
2019-05-20T14:36:37.283Z,26.57
2019-05-20T14:38:46.080Z,34.10
2019-05-20T14:41:21.594Z,31.33
2019-05-20T14:43:47.932Z,38.33
2019-05-20T14:46:17.695Z,27.67
2019-05-20T14:48:50.732Z,30.73
2019-05-20T14:51:22.940Z,29.43
2019-05-20T14:53:52.614Z,33.73
2019-05-20T14:56:22.331Z,30.83
2019-05-20T14:58:52.095Z,25.10
2019-05-20T15:01:21.891Z,32.83
2019-05-20T15:03:51.590Z,29.40
2019-05-20T15:06:21.452Z,30.57
2019-05-20T15:08:51.446Z,25.97
2019-05-20T15:11:35.639Z,24.53
2019-05-20T15:13:52.583Z,31.33
2019-05-20T15:16:22.423Z,26.47
2019-05-20T15:18:52.480Z,30.30
2019-05-20T15:21:22.191Z,27.10
2019-05-20T15:23:51.950Z,30.53
2019-05-20T15:26:21.642Z,25.00
2019-05-20T15:28:51.351Z,26.43
2019-05-20T15:31:21.058Z,28.83
2019-05-20T15:33:50.829Z,30.63
2019-05-20T15:36:20.652Z,26.33
2019-05-20T15:38:50.343Z,34.20
2019-05-20T15:41:21.111Z,32.40
2019-05-20T15:43:50.870Z,33.20
2019-05-20T15:46:20.883Z,21.90
2019-05-20T15:48:50.583Z,30.20
2019-05-20T15:51:20.303Z,31.53
2019-05-20T15:53:50.074Z,30.07
2019-05-20T15:56:19.819Z,34.63
2019-05-20T15:58:49.614Z,27.93
2019-05-20T16:01:19.554Z,23.70
2019-05-20T16:03:51.493Z,33.97
2019-05-20T16:06:21.044Z,42.23
2019-05-20T16:08:50.755Z,29.90
2019-05-20T16:11:20.471Z,26.97
2019-05-20T16:13:50.167Z,28.47
2019-05-20T16:16:21.044Z,24.73
2019-05-20T16:18:50.755Z,29.70
2019-05-20T16:21:20.612Z,26.27
2019-05-20T16:23:50.463Z,22.07
2019-05-20T16:26:20.236Z,24.13
2019-05-20T16:28:50.151Z,22.23
2019-05-20T16:31:19.838Z,22.37
2019-05-20T16:33:49.575Z,22.37
2019-05-20T16:36:19.441Z,19.97
2019-05-20T16:38:50.110Z,20.90
2019-05-20T16:41:20.435Z,18.53
2019-05-20T16:43:50.240Z,24.40
2019-05-20T16:46:20.019Z,19.10
2019-05-20T16:48:49.783Z,20.13
2019-05-20T16:51:22.164Z,17.40
2019-05-20T16:53:52.135Z,22.27
2019-05-20T16:56:21.919Z,19.63
2019-05-20T16:58:51.633Z,21.37
2019-05-20T17:01:21.407Z,20.27
2019-05-20T17:03:51.198Z,23.43
2019-05-20T17:06:21.031Z,21.70
2019-05-20T17:08:50.761Z,21.77
2019-05-20T17:11:20.537Z,20.50
2019-05-20T17:13:50.326Z,24.93
2019-05-20T17:16:20.121Z,26.40
2019-05-20T17:18:49.975Z,24.67
2019-05-20T17:21:19.889Z,19.53
2019-05-20T17:23:49.626Z,24.47
2019-05-20T17:26:19.431Z,28.67
2019-05-20T17:28:49.183Z,24.70
2019-05-20T17:31:19.054Z,38.00
2019-05-20T17:33:48.911Z,27.17
2019-05-20T17:36:18.740Z,20.50
2019-05-20T17:38:48.525Z,21.33
2019-05-20T17:41:18.365Z,16.37
2019-05-20T17:43:48.148Z,21.20
2019-05-20T17:46:18.128Z,18.73
2019-05-20T17:48:47.975Z,23.17
2019-05-20T17:51:18.007Z,17.33
2019-05-20T17:53:47.710Z,28.40
2019-05-20T17:56:17.544Z,19.87
2019-05-20T17:58:47.324Z,17.73
2019-05-20T18:01:17.043Z,17.83
2019-05-20T18:03:46.769Z,16.23
2019-05-20T18:06:16.580Z,18.53
2019-05-20T18:08:50.238Z,13.63
2019-05-20T18:11:20.110Z,16.07
2019-05-20T18:13:49.799Z,17.67
2019-05-20T18:16:19.773Z,16.40
2019-05-20T18:18:49.871Z,16.60
2019-05-20T18:21:19.882Z,20.33
2019-05-20T18:23:49.671Z,19.00
2019-05-20T18:26:19.446Z,27.07
2019-05-20T18:28:49.210Z,34.37
2019-05-20T18:31:31.717Z,24.13
2019-05-20T18:33:50.679Z,26.13
2019-05-20T18:36:20.447Z,30.70
2019-05-20T18:38:50.318Z,22.27
2019-05-20T18:41:20.223Z,26.23
2019-05-20T18:43:49.935Z,30.07
2019-05-20T18:46:19.731Z,26.43
2019-05-20T18:48:49.437Z,19.23
2019-05-20T18:51:19.317Z,28.57
2019-05-20T18:53:49.005Z,21.53
2019-05-20T18:56:19.777Z,21.60
2019-05-20T18:58:49.544Z,25.37
2019-05-20T19:01:19.813Z,23.23
2019-05-20T19:03:49.693Z,27.47
2019-05-20T19:06:19.560Z,24.77
2019-05-20T19:08:52.340Z,28.93
2019-05-20T19:11:22.212Z,25.57
2019-05-20T19:13:53.029Z,31.10
2019-05-20T19:16:22.801Z,30.20
2019-05-20T19:18:52.580Z,28.83
2019-05-20T19:21:22.369Z,29.17
2019-05-20T19:23:52.184Z,26.33
2019-05-20T19:26:25.012Z,28.07
2019-05-20T19:28:53.371Z,35.50
2019-05-20T19:31:23.156Z,42.97
2019-05-20T19:33:52.859Z,29.90
2019-05-20T19:36:22.644Z,36.67
2019-05-20T19:38:52.695Z,45.93
2019-05-20T19:41:22.419Z,31.60
2019-05-20T19:43:53.103Z,34.23
2019-05-20T19:46:22.816Z,35.13
2019-05-20T19:48:52.511Z,30.13
2019-05-20T19:51:22.293Z,31.60
2019-05-20T19:53:52.175Z,30.70
2019-05-20T19:56:21.894Z,27.93
2019-05-20T19:58:51.595Z,33.77
2019-05-20T20:01:21.367Z,26.60
2019-05-20T20:03:51.155Z,27.03
2019-05-20T20:06:20.935Z,29.70
2019-05-20T20:08:50.710Z,30.97
2019-05-20T20:11:20.577Z,33.87
2019-05-20T20:13:50.348Z,31.53
2019-05-20T20:16:20.132Z,29.20
2019-05-20T20:18:49.819Z,22.43
2019-05-20T20:21:19.551Z,31.23
2019-05-20T20:23:49.284Z,26.07
2019-05-20T20:26:19.041Z,22.47
2019-05-20T20:28:48.738Z,25.83
2019-05-20T20:31:18.502Z,27.73
2019-05-20T20:33:48.395Z,21.07
2019-05-20T20:36:21.218Z,21.63
2019-05-20T20:38:49.580Z,20.93
2019-05-20T20:41:19.421Z,24.67
2019-05-20T20:43:49.181Z,28.10
2019-05-20T20:46:18.986Z,26.57
2019-05-20T20:48:48.774Z,22.13
2019-05-20T20:51:18.508Z,30.37
2019-05-20T20:53:49.184Z,24.83
2019-05-20T20:56:25.322Z,22.00
2019-05-20T20:58:50.766Z,22.10
2019-05-20T21:01:20.579Z,19.10
2019-05-20T21:03:50.435Z,26.37
2019-05-20T21:06:20.235Z,25.27
2019-05-20T21:08:49.954Z,22.60
2019-05-20T21:11:19.839Z,21.07
2019-05-20T21:13:49.548Z,21.83
2019-05-20T21:16:19.403Z,27.63
2019-05-20T21:18:49.095Z,21.53
2019-05-20T21:21:18.844Z,21.20
2019-05-20T21:23:48.563Z,16.90
2019-05-20T21:26:18.255Z,21.43
2019-05-20T21:28:47.942Z,20.70
2019-05-20T21:31:17.728Z,24.47
2019-05-20T21:33:47.419Z,26.17
2019-05-20T21:36:17.183Z,22.50
2019-05-20T21:38:46.881Z,33.10
2019-05-20T21:41:16.646Z,26.50
2019-05-20T21:43:46.369Z,20.73
2019-05-20T21:46:16.076Z,33.30
2019-05-20T21:48:45.942Z,39.97
2019-05-20T21:51:15.651Z,31.07
2019-05-20T21:53:45.365Z,37.57
2019-05-20T21:56:15.154Z,22.57
2019-05-20T21:58:44.827Z,23.70
2019-05-20T22:01:16.437Z,21.27
2019-05-20T22:03:46.190Z,19.80
2019-05-20T22:06:15.967Z,27.07
2019-05-20T22:08:45.654Z,29.07
2019-05-20T22:11:15.496Z,27.50
2019-05-20T22:13:45.273Z,24.53
2019-05-20T22:16:14.974Z,24.23
2019-05-20T22:18:44.802Z,23.37
2019-05-20T22:21:16.150Z,25.70
2019-05-20T22:23:56.919Z,26.27
2019-05-20T22:26:26.652Z,30.10
2019-05-20T22:28:56.337Z,24.40
2019-05-20T22:31:26.290Z,19.90
2019-05-20T22:33:57.201Z,19.40
2019-05-20T22:36:26.918Z,24.17
2019-05-20T22:38:56.690Z,25.97
2019-05-20T22:41:26.507Z,25.63
2019-05-20T22:43:56.205Z,28.83
2019-05-20T22:46:26.007Z,24.63
2019-05-20T22:48:55.851Z,22.63
2019-05-20T22:51:25.631Z,23.40
2019-05-20T22:53:55.365Z,37.43
2019-05-20T22:56:25.134Z,35.27
2019-05-20T22:58:54.806Z,35.60
2019-05-20T23:01:24.559Z,27.93
2019-05-20T23:03:56.337Z,29.53
2019-05-20T23:06:25.693Z,29.03
2019-05-20T23:08:55.382Z,30.63
2019-05-20T23:11:25.078Z,33.13
2019-05-20T23:13:54.792Z,30.87
2019-05-20T23:16:24.488Z,34.60
2019-05-20T23:18:54.203Z,33.73
2019-05-20T23:21:23.914Z,33.97
2019-05-20T23:23:53.618Z,34.83
2019-05-20T23:26:23.333Z,32.70
2019-05-20T23:28:53.183Z,39.23
2019-05-20T23:31:22.908Z,38.70
2019-05-20T23:33:52.699Z,41.97
2019-05-20T23:36:22.403Z,36.20
2019-05-20T23:38:53.096Z,54.13
2019-05-20T23:41:22.778Z,47.10
2019-05-20T23:43:52.567Z,39.37
2019-05-20T23:46:22.274Z,40.23
2019-05-20T23:48:52.079Z,35.70
2019-05-20T23:51:21.821Z,47.23
2019-05-20T23:53:51.735Z,41.90
2019-05-20T23:56:21.512Z,43.50
2019-05-20T23:58:52.246Z,34.00
